Time,TemperatureF,DewpointF,PressureIn,WindDirection,WindDirectionDegrees,WindSpeedMPH,WindSpeedGustMPH,Humidity,HourlyPrecipIn,Conditions,Clouds,dailyrainin,SolarRadiationWatts/m^2,SoftwareType,DateUTC
2013-05-06 00:22:00,44.0,44.0,-100.00,NE,41,6.0,7.0,100,0.00,,,0.00,0.000000,,2013-05-06 05:22:00,
2013-05-06 00:32:00,44.0,44.0,-100.00,NE,41,6.0,7.0,100,0.00,,,0.00,0.000000,,2013-05-06 05:32:00,
2013-05-06 00:42:00,44.0,44.0,-100.00,NE,41,6.0,7.0,100,0.00,,,0.00,0.000000,,2013-05-06 05:42:00,
2013-05-06 00:52:00,44.0,44.0,-100.00,NE,41,6.0,7.0,100,0.00,,,0.00,0.000000,,2013-05-06 05:52:00,
2013-05-06 01:21:00,42.0,42.0,-100.00,NE,36,5.0,7.0,100,0.00,,,0.00,0.000000,,2013-05-06 06:21:00,
2013-05-06 01:32:00,42.0,42.0,-100.00,NE,36,5.0,7.0,100,0.00,,,0.00,0.000000,,2013-05-06 06:32:00,
2013-05-06 01:42:00,42.0,42.0,-100.00,NE,36,5.0,7.0,100,0.00,,,0.00,0.000000,,2013-05-06 06:42:00,
2013-05-06 01:52:00,42.0,42.0,-100.00,NE,36,5.0,7.0,100,0.00,,,0.00,0.000000,,2013-05-06 06:52:00,
2013-05-06 02:22:00,35.0,35.0,-100.00,NW,324,2.0,6.0,100,0.00,,,0.00,0.000000,,2013-05-06 07:22:00,
2013-05-06 02:32:00,35.0,35.0,-100.00,NW,324,2.0,6.0,100,0.00,,,0.00,0.000000,,2013-05-06 07:32:00,
2013-05-06 02:42:00,35.0,35.0,-100.00,NW,324,2.0,6.0,100,0.00,,,0.00,0.000000,,2013-05-06 07:42:00,
2013-05-06 02:52:00,35.0,35.0,-100.00,NW,324,2.0,6.0,100,0.00,,,0.00,0.000000,,2013-05-06 07:52:00,
2013-05-06 03:22:00,35.0,35.0,-100.00,NW,315,0.0,3.0,100,0.00,,,0.00,0.000000,,2013-05-06 08:22:00,
2013-05-06 03:32:00,35.0,35.0,-100.00,NW,315,0.0,3.0,100,0.00,,,0.00,0.000000,,2013-05-06 08:32:00,
2013-05-06 03:42:00,35.0,35.0,-100.00,NW,315,0.0,3.0,100,0.00,,,0.00,0.000000,,2013-05-06 08:42:00,
2013-05-06 03:52:00,35.0,35.0,-100.00,NW,315,0.0,3.0,100,0.00,,,0.00,0.000000,,2013-05-06 08:52:00,
2013-05-06 04:22:00,33.0,33.0,-100.00,WNW,298,1.0,3.0,100,0.00,,,0.00,0.000000,,2013-05-06 09:22:00,
2013-05-06 04:33:00,33.0,33.0,-100.00,WNW,298,1.0,3.0,100,0.00,,,0.00,0.000000,,2013-05-06 09:33:00,
2013-05-06 04:42:00,33.0,33.0,-100.00,WNW,298,1.0,3.0,100,0.00,,,0.00,0.000000,,2013-05-06 09:42:00,
2013-05-06 04:53:00,33.0,33.0,-100.00,WNW,298,1.0,3.0,100,0.00,,,0.00,0.000000,,2013-05-06 09:53:00,
2013-05-06 05:22:00,33.0,33.0,-100.00,West,259,4.0,4.0,100,0.00,,,0.00,0.000000,,2013-05-06 10:22:00,
2013-05-06 05:33:00,33.0,33.0,-100.00,West,259,4.0,4.0,100,0.00,,,0.00,0.000000,,2013-05-06 10:33:00,
2013-05-06 05:42:00,33.0,33.0,-100.00,West,259,4.0,4.0,100,0.00,,,0.00,0.000000,,2013-05-06 10:42:00,
2013-05-06 05:52:00,33.0,33.0,-100.00,West,259,4.0,4.0,100,0.00,,,0.00,0.000000,,2013-05-06 10:52:00,
2013-05-06 06:22:00,33.0,33.0,-100.00,NW,307,3.0,4.0,100,0.00,,,0.00,0.000000,,2013-05-06 11:22:00,
2013-05-06 06:31:00,33.0,33.0,-100.00,NW,307,3.0,4.0,100,0.00,,,0.00,0.000000,,2013-05-06 11:31:00,
2013-05-06 06:42:00,33.0,33.0,-100.00,NW,307,3.0,4.0,100,0.00,,,0.00,0.000000,,2013-05-06 11:42:00,
2013-05-06 06:52:00,33.0,33.0,-100.00,NW,307,3.0,4.0,100,0.00,,,0.00,0.000000,,2013-05-06 11:52:00,
2013-05-06 07:21:00,32.0,32.0,-100.00,West,264,4.0,4.0,100,0.00,,,0.00,0.000000,,2013-05-06 12:21:00,
2013-05-06 07:32:00,32.0,32.0,-100.00,West,264,4.0,4.0,100,0.00,,,0.00,0.000000,,2013-05-06 12:32:00,
2013-05-06 07:42:00,32.0,32.0,-100.00,West,264,4.0,4.0,100,0.00,,,0.00,0.000000,,2013-05-06 12:42:00,
2013-05-06 07:52:00,32.0,32.0,-100.00,West,264,4.0,4.0,100,0.00,,,0.00,0.000000,,2013-05-06 12:52:00,
2013-05-06 08:21:00,39.0,39.0,-100.00,NW,315,3.0,4.0,100,0.00,,,0.00,0.000000,,2013-05-06 13:21:00,
2013-05-06 08:32:00,39.0,39.0,-100.00,NW,315,3.0,4.0,100,0.00,,,0.00,0.000000,,2013-05-06 13:32:00,
2013-05-06 08:42:00,39.0,39.0,-100.00,NW,315,3.0,4.0,100,0.00,,,0.00,0.000000,,2013-05-06 13:42:00,
2013-05-06 08:52:00,39.0,39.0,-100.00,NW,315,3.0,4.0,100,0.00,,,0.00,0.000000,,2013-05-06 13:52:00,
2013-05-06 09:21:00,47.0,47.0,-100.00,NNE,17,3.0,5.0,100,0.00,,,0.00,0.000000,,2013-05-06 14:21:00,
2013-05-06 09:32:00,47.0,47.0,-100.00,NNE,17,3.0,5.0,100,0.00,,,0.00,0.000000,,2013-05-06 14:32:00,
2013-05-06 09:42:00,47.0,47.0,-100.00,NNE,17,3.0,5.0,100,0.00,,,0.00,0.000000,,2013-05-06 14:42:00,
2013-05-06 09:51:00,47.0,47.0,-100.00,NNE,17,3.0,5.0,100,0.00,,,0.00,0.000000,,2013-05-06 14:51:00,
2013-05-06 10:21:00,53.0,53.0,-100.00,NNW,334,5.0,8.0,100,0.00,,,0.00,0.000000,,2013-05-06 15:21:00,
2013-05-06 10:33:00,53.0,53.0,-100.00,NNW,334,5.0,8.0,100,0.00,,,0.00,0.000000,,2013-05-06 15:33:00,
2013-05-06 10:42:00,53.0,53.0,-100.00,NNW,334,5.0,8.0,100,0.00,,,0.00,0.000000,,2013-05-06 15:42:00,
2013-05-06 10:53:00,53.0,53.0,-100.00,NNW,334,5.0,8.0,100,0.00,,,0.00,0.000000,,2013-05-06 15:53:00,
2013-05-06 11:23:00,59.0,47.0,-100.00,NNE,25,4.0,10.0,65,0.00,,,0.00,0.000000,,2013-05-06 16:23:00,
2013-05-06 11:32:00,59.0,47.0,-100.00,NNE,25,4.0,10.0,65,0.00,,,0.00,0.000000,,2013-05-06 16:32:00,
2013-05-06 11:42:00,59.0,47.0,-100.00,NNE,25,4.0,10.0,65,0.00,,,0.00,0.000000,,2013-05-06 16:42:00,
2013-05-06 11:52:00,59.0,47.0,-100.00,NNE,25,4.0,10.0,65,0.00,,,0.00,0.000000,,2013-05-06 16:52:00,
2013-05-06 12:23:00,62.0,43.0,-100.00,North,9,4.0,10.0,49,0.00,,,0.00,0.000000,,2013-05-06 17:23:00,
2013-05-06 12:31:00,62.0,43.0,-100.00,North,9,4.0,10.0,49,0.00,,,0.00,0.000000,,2013-05-06 17:31:00,
2013-05-06 12:42:00,62.0,43.0,-100.00,North,9,4.0,10.0,49,0.00,,,0.00,0.000000,,2013-05-06 17:42:00,
2013-05-06 12:52:00,62.0,43.0,-100.00,North,9,4.0,10.0,49,0.00,,,0.00,0.000000,,2013-05-06 17:52:00,
2013-05-06 13:22:00,64.0,39.0,-100.00,WNW,299,3.0,12.0,40,0.00,,,0.00,0.000000,,2013-05-06 18:22:00,
2013-05-06 13:31:00,64.0,39.0,-100.00,WNW,299,3.0,12.0,40,0.00,,,0.00,0.000000,,2013-05-06 18:31:00,
2013-05-06 13:43:00,64.0,39.0,-100.00,WNW,299,3.0,12.0,40,0.00,,,0.00,0.000000,,2013-05-06 18:43:00,
2013-05-06 13:52:00,64.0,39.0,-100.00,WNW,299,3.0,12.0,40,0.00,,,0.00,0.000000,,2013-05-06 18:52:00,
2013-05-06 14:22:00,66.0,34.0,-100.00,West,278,5.0,14.0,31,0.00,,,0.00,0.000000,,2013-05-06 19:22:00,
2013-05-06 14:32:00,66.0,34.0,-100.00,West,278,5.0,14.0,31,0.00,,,0.00,0.000000,,2013-05-06 19:32:00,
2013-05-06 14:41:00,66.0,34.0,-100.00,West,278,5.0,14.0,31,0.00,,,0.00,0.000000,,2013-05-06 19:41:00,
2013-05-06 14:52:00,66.0,34.0,-100.00,West,278,5.0,14.0,31,0.00,,,0.00,0.000000,,2013-05-06 19:52:00,
2013-05-06 15:21:00,67.0,35.0,-100.00,NNE,19,5.0,12.0,30,0.00,,,0.00,0.000000,,2013-05-06 20:21:00,
2013-05-06 15:32:00,67.0,35.0,-100.00,NNE,19,5.0,12.0,30,0.00,,,0.00,0.000000,,2013-05-06 20:32:00,
2013-05-06 15:42:00,67.0,35.0,-100.00,NNE,19,5.0,12.0,30,0.00,,,0.00,0.000000,,2013-05-06 20:42:00,
2013-05-06 15:52:00,67.0,35.0,-100.00,NNE,19,5.0,12.0,30,0.00,,,0.00,0.000000,,2013-05-06 20:52:00,
2013-05-06 16:21:00,69.0,33.0,-100.00,NW,317,5.0,12.0,26,0.00,,,0.00,0.000000,,2013-05-06 21:21:00,
2013-05-06 16:32:00,69.0,33.0,-100.00,NW,317,5.0,12.0,26,0.00,,,0.00,0.000000,,2013-05-06 21:32:00,
2013-05-06 16:43:00,69.0,33.0,-100.00,NW,317,5.0,12.0,26,0.00,,,0.00,0.000000,,2013-05-06 21:43:00,
2013-05-06 16:53:00,69.0,33.0,-100.00,NW,317,5.0,12.0,26,0.00,,,0.00,0.000000,,2013-05-06 21:53:00,
2013-05-06 17:22:00,69.0,33.0,-100.00,ENE,63,7.0,10.0,26,0.00,,,0.00,0.000000,,2013-05-06 22:22:00,
2013-05-06 17:33:00,69.0,33.0,-100.00,ENE,63,7.0,10.0,26,0.00,,,0.00,0.000000,,2013-05-06 22:33:00,
2013-05-06 17:45:00,69.0,33.0,-100.00,ENE,63,7.0,10.0,26,0.00,,,0.00,0.000000,,2013-05-06 22:45:00,
2013-05-06 17:52:00,69.0,33.0,-100.00,ENE,63,7.0,10.0,26,0.00,,,0.00,0.000000,,2013-05-06 22:52:00,
2013-05-06 18:22:00,69.0,34.0,-100.00,ENE,64,5.0,11.0,27,0.00,,,0.00,0.000000,,2013-05-06 23:22:00,
2013-05-06 18:32:00,69.0,34.0,-100.00,ENE,64,5.0,11.0,27,0.00,,,0.00,0.000000,,2013-05-06 23:32:00,
2013-05-06 18:42:00,69.0,34.0,-100.00,ENE,64,5.0,11.0,27,0.00,,,0.00,0.000000,,2013-05-06 23:42:00,
2013-05-06 18:52:00,69.0,34.0,-100.00,ENE,64,5.0,11.0,27,0.00,,,0.00,0.000000,,2013-05-06 23:52:00,
2013-05-06 19:21:00,69.0,35.0,-100.00,SE,135,3.0,10.0,28,0.00,,,0.00,0.000000,,2013-05-07 00:21:00,
2013-05-06 19:32:00,69.0,35.0,-100.00,SE,135,3.0,10.0,28,0.00,,,0.00,0.000000,,2013-05-07 00:32:00,
2013-05-06 19:42:00,69.0,35.0,-100.00,SE,135,3.0,10.0,28,0.00,,,0.00,0.000000,,2013-05-07 00:42:00,
2013-05-06 19:51:00,69.0,35.0,-100.00,SE,135,3.0,10.0,28,0.00,,,0.00,0.000000,,2013-05-07 00:51:00,
2013-05-06 20:21:00,67.0,30.0,-100.00,East,100,2.0,5.0,25,0.00,,,0.00,0.000000,,2013-05-07 01:21:00,
2013-05-06 20:32:00,67.0,30.0,-100.00,East,100,2.0,5.0,25,0.00,,,0.00,0.000000,,2013-05-07 01:32:00,
2013-05-06 20:42:00,67.0,30.0,-100.00,East,100,2.0,5.0,25,0.00,,,0.00,0.000000,,2013-05-07 01:42:00,
2013-05-06 20:52:00,67.0,30.0,-100.00,East,100,2.0,5.0,25,0.00,,,0.00,0.000000,,2013-05-07 01:52:00,
2013-05-06 21:21:00,61.0,31.0,-100.00,East,80,5.0,7.0,32,0.00,,,0.00,0.000000,,2013-05-07 02:21:00,
2013-05-06 21:32:00,61.0,31.0,-100.00,East,80,5.0,7.0,32,0.00,,,0.00,0.000000,,2013-05-07 02:32:00,
2013-05-06 21:42:00,61.0,31.0,-100.00,East,80,5.0,7.0,32,0.00,,,0.00,0.000000,,2013-05-07 02:42:00,
2013-05-06 21:52:00,61.0,31.0,-100.00,East,80,5.0,7.0,32,0.00,,,0.00,0.000000,,2013-05-07 02:52:00,
2013-05-06 22:22:00,52.0,36.0,-100.00,East,88,7.0,9.0,55,0.00,,,0.00,0.000000,,2013-05-07 03:22:00,
2013-05-06 22:32:00,52.0,36.0,-100.00,East,88,7.0,9.0,55,0.00,,,0.00,0.000000,,2013-05-07 03:32:00,
2013-05-06 22:42:00,52.0,36.0,-100.00,East,88,7.0,9.0,55,0.00,,,0.00,0.000000,,2013-05-07 03:42:00,
2013-05-06 22:53:00,52.0,36.0,-100.00,East,88,7.0,9.0,55,0.00,,,0.00,0.000000,,2013-05-07 03:53:00,
2013-05-06 23:23:00,50.0,35.0,-100.00,East,99,7.0,7.0,57,0.00,,,0.00,0.000000,,2013-05-07 04:23:00,
2013-05-06 23:33:00,50.0,35.0,-100.00,East,99,7.0,7.0,57,0.00,,,0.00,0.000000,,2013-05-07 04:33:00,
2013-05-06 23:42:00,50.0,35.0,-100.00,East,99,7.0,7.0,57,0.00,,,0.00,0.000000,,2013-05-07 04:42:00,
2013-05-06 23:53:00,50.0,35.0,-100.00,East,99,7.0,7.0,57,0.00,,,0.00,0.000000,,2013-05-07 04:53:00,